Time;durP1;ratioP1;P1;durP2;ratioP2;P2;SDS_P1;SDS_P2;PMS_P1;PMS_P2;Temp;Humidity;BMP_temperature;BMP_pressure;BME280_temperature;BME280_humidity;BME280_pressure;Samples;Min_cycle;Max_cycle;Signal;HPM_P1;HPM_P2
2021/01/05 00:00:51;;;;;;;18.77;12.48;;;;;;;19.11;43.08;101005.38;5021093;28;20458;-70
2021/01/05 00:03:16;;;;;;;18.80;12.73;;;;;;;19.11;43.07;101008.91;5033791;28;20091;-70
2021/01/05 00:05:42;;;;;;;22.40;13.10;;;;;;;19.06;43.27;101000.28;5033665;28;20101;-69
2021/01/05 00:08:07;;;;;;;15.40;11.27;;;;;;;19.10;43.18;101004.53;5034118;28;20060;-71
2021/01/05 00:10:34;;;;;;;17.95;12.52;;;;;;;19.13;42.95;100998.25;5032614;28;20157;-71
2021/01/05 00:13:00;;;;;;;17.42;13.13;;;;;;;19.07;43.19;101001.97;5034379;28;20045;-69
2021/01/05 00:15:26;;;;;;;20.23;11.30;;;;;;;19.08;42.75;101003.72;5032193;28;20045;-69
2021/01/05 00:17:52;;;;;;;15.60;11.60;;;;;;;19.06;43.13;101008.22;5001928;28;20060;-70
2021/01/05 00:20:32;;;;;;;17.23;12.15;;;;;;;19.06;42.99;101004.69;5030289;28;20822;-70
2021/01/05 00:22:58;;;;;;;15.27;10.75;;;;;;;19.06;42.87;100999.38;5015386;28;20041;-70
2021/01/05 00:25:24;;;;;;;14.88;11.00;;;;;;;19.08;42.46;101008.16;4688683;28;10000256;-71
2021/01/05 00:27:51;;;;;;;13.00;10.23;;;;;;;19.09;42.54;101001.94;5034623;28;20140;-69
2021/01/05 00:30:25;;;;;;;14.50;11.20;;;;;;;19.05;42.53;101006.50;5032825;28;20119;-70
2021/01/05 00:32:54;;;;;;;14.93;10.82;;;;;;;19.06;42.92;101004.69;5035904;28;20041;-70
2021/01/05 00:35:27;;;;;;;16.20;10.38;;;;;;;19.05;42.44;101005.63;5016156;28;20466;-71
2021/01/05 00:37:54;;;;;;;15.68;9.95;;;;;;;19.03;42.69;101000.38;5041773;28;20068;-69
2021/01/05 00:40:22;;;;;;;14.88;10.63;;;;;;;19.03;42.72;100999.53;5037568;28;20048;-71
2021/01/05 00:42:47;;;;;;;12.00;9.55;;;;;;;19.01;42.47;100991.63;5009038;28;20025;-70
2021/01/05 00:45:32;;;;;;;12.77;10.02;;;;;;;18.98;42.70;100997.91;5021830;28;20036;-70
2021/01/05 00:47:59;;;;;;;14.15;9.77;;;;;;;18.97;42.59;100993.53;5042369;28;20582;-70
2021/01/05 00:50:25;;;;;;;13.20;9.10;;;;;;;18.98;42.37;100992.59;5056568;28;20643;-70
2021/01/05 00:52:51;;;;;;;13.13;10.00;;;;;;;18.99;42.22;100999.66;5038265;28;21626;-70
2021/01/05 00:55:17;;;;;;;11.48;8.27;;;;;;;18.98;42.71;100997.91;5037224;28;20051;-70
2021/01/05 00:57:44;;;;;;;12.98;9.52;;;;;;;18.96;42.56;100996.25;5039659;28;20044;-69
2021/01/05 01:00:23;;;;;;;12.23;8.48;;;;;;;18.97;42.30;100998.81;5039041;28;20053;-70
2021/01/05 01:02:50;;;;;;;13.45;8.70;;;;;;;18.95;42.36;101000.66;5038790;28;20360;-69
2021/01/05 01:05:17;;;;;;;11.93;8.50;;;;;;;18.96;42.24;100998.91;5039300;28;20053;-70
2021/01/05 01:07:42;;;;;;;12.07;8.85;;;;;;;18.93;42.34;100994.56;5040499;28;20779;-70
2021/01/05 01:10:10;;;;;;;12.30;9.05;;;;;;;18.93;42.02;100997.22;5038503;28;20025;-70
2021/01/05 01:12:35;;;;;;;12.07;8.90;;;;;;;18.92;42.21;100997.28;5040927;28;20040;-69
2021/01/05 01:15:03;;;;;;;11.18;8.63;;;;;;;18.94;42.18;100992.78;5034497;28;20161;-71
2021/01/05 01:17:28;;;;;;;11.02;7.55;;;;;;;18.92;42.03;100998.13;5040063;28;20032;-71
2021/01/05 01:19:54;;;;;;;11.98;8.20;;;;;;;18.94;42.01;101003.38;5040146;28;20422;-71
2021/01/05 01:22:23;;;;;;;9.07;7.25;;;;;;;18.89;42.15;100998.28;5036047;28;20045;-69
2021/01/05 01:24:49;;;;;;;9.85;8.20;;;;;;;18.90;42.18;100996.47;5035576;28;20041;-69
2021/01/05 01:27:15;;;;;;;9.20;7.97;;;;;;;18.93;42.03;100999.00;5039778;28;20162;-70
2021/01/05 01:29:41;;;;;;;12.77;8.60;;;;;;;18.89;41.84;100998.28;5021580;28;20564;-71
2021/01/05 01:32:06;;;;;;;10.00;8.68;;;;;;;18.89;41.94;101005.31;5037925;28;20068;-71
2021/01/05 01:34:32;;;;;;;9.10;7.20;;;;;;;18.88;41.66;100998.28;5035760;28;21045;-71
2021/01/05 01:37:00;;;;;;;12.18;7.88;;;;;;;18.88;41.87;100999.16;5040218;28;20262;-70
2021/01/05 01:39:28;;;;;;;9.48;7.43;;;;;;;18.84;42.05;101002.84;5039368;28;20052;-71
2021/01/05 01:41:55;;;;;;;9.35;7.55;;;;;;;18.88;41.86;100999.16;5035820;28;20029;-69
2021/01/05 01:44:28;;;;;;;10.00;8.23;;;;;;;18.87;41.91;100993.91;5040634;28;20059;-71
2021/01/05 01:46:57;;;;;;;;;;;;;;;18.89;41.62;100990.31;5038284;28;20045;-69
2021/01/05 01:49:23;;;;;;;7.25;6.57;;;;;;;18.85;42.37;100988.63;5040420;28;19958;-69
2021/01/05 01:51:51;;;;;;;9.25;6.97;;;;;;;18.86;42.04;100990.38;5035041;28;20033;-70
2021/01/05 01:55:06;;;;;;;9.73;7.03;;;;;;;18.82;42.18;100991.41;5039073;28;20522;-71
2021/01/05 01:58:03;;;;;;;8.40;7.05;;;;;;;18.84;41.81;100997.53;5037765;28;20041;-71
2021/01/05 02:00:52;;;;;;;7.60;6.78;;;;;;;18.82;42.08;100994.06;5037871;28;20041;-72
2021/01/05 02:03:53;;;;;;;13.00;7.40;;;;;;;18.80;41.83;100991.50;5038000;28;20690;-70
2021/01/05 02:06:44;;;;;;;10.38;6.85;;;;;;;18.80;41.68;100996.78;5020048;28;20051;-69
2021/01/05 02:09:48;;;;;;;8.52;5.97;;;;;;;18.80;41.68;100988.84;5037798;28;20047;-70
2021/01/05 02:12:50;;;;;;;10.55;7.40;;;;;;;18.74;42.07;100993.50;5018835;28;20037;-71
2021/01/05 02:15:42;;;;;;;9.50;6.57;;;;;;;18.76;41.87;100995.19;5038689;28;20059;-70
2021/01/05 02:18:22;;;;;;;9.98;6.90;;;;;;;18.76;41.71;100992.53;5037692;28;20045;-70
2021/01/05 02:20:56;;;;;;;7.38;6.47;;;;;;;18.72;42.31;100990.91;5021479;28;20083;-69
2021/01/05 02:23:26;;;;;;;8.07;6.40;;;;;;;18.79;41.53;100991.56;5021511;28;20041;-70
2021/01/05 02:26:08;;;;;;;8.60;6.60;;;;;;;18.78;41.67;100985.38;5041312;28;20068;-70
2021/01/05 02:28:46;;;;;;;7.90;6.53;;;;;;;18.76;41.68;100987.22;5025019;28;20040;-71
2021/01/05 02:32:02;;;;;;;7.95;5.93;;;;;;;18.79;42.00;100984.44;5022012;28;20067;-71
2021/01/05 02:35:28;;;;;;;6.57;5.95;;;;;;;18.73;41.56;100982.00;5000729;28;20041;-71
2021/01/05 02:38:47;;;;;;;8.77;7.47;;;;;;;18.75;41.65;100987.28;5037575;28;20311;-70
2021/01/05 02:41:51;;;;;;;6.82;5.47;;;;;;;18.77;41.73;100996.91;5034181;28;20045;-70
2021/01/05 02:44:31;;;;;;;6.93;5.57;;;;;;;18.72;41.71;100990.91;5039893;28;20486;-70
2021/01/05 02:47:23;;;;;;;6.93;6.25;;;;;;;18.76;41.71;100994.28;5038581;28;20045;-70
2021/01/05 02:50:10;;;;;;;6.72;5.88;;;;;;;18.70;41.77;100984.81;5007311;28;20051;-69
2021/01/05 02:53:11;;;;;;;7.90;6.40;;;;;;;18.74;41.30;100983.75;5036786;28;20139;-70
2021/01/05 02:56:14;;;;;;;6.72;5.88;;;;;;;18.71;41.60;100986.53;5035438;28;20037;-71
2021/01/05 02:59:36;;;;;;;7.90;5.47;;;;;;;18.70;41.48;100986.59;5020793;28;20037;-69
2021/01/05 03:02:51;;;;;;;6.32;5.68;;;;;;;18.69;41.39;100983.06;5037137;28;20035;-70
2021/01/05 03:05:17;;;;;;;7.63;5.90;;;;;;;18.66;41.36;100981.38;5034166;28;20124;-69
2021/01/05 03:07:43;;;;;;;7.32;5.65;;;;;;;18.64;41.68;100982.38;5024425;28;20037;-70
2021/01/05 03:10:19;;;;;;;7.05;5.78;;;;;;;18.69;41.52;100983.06;5019140;28;20028;-69
2021/01/05 03:13:10;;;;;;;8.30;6.18;;;;;;;18.67;41.43;100982.28;5036247;28;20041;-69
2021/01/05 03:15:57;;;;;;;6.10;5.50;;;;;;;18.67;41.46;100980.47;5018710;28;20033;-70
2021/01/05 03:18:46;;;;;;;6.13;5.53;;;;;;;18.62;41.66;100976.28;5002961;28;20037;-69
2021/01/05 03:21:31;;;;;;;5.60;5.05;;;;;;;18.66;41.27;100973.44;5034279;28;20037;-70
2021/01/05 03:23:59;;;;;;;6.85;5.68;;;;;;;18.62;41.39;100979.78;5018307;28;20032;-68
2021/01/05 03:26:38;;;;;;;7.43;5.88;;;;;;;18.68;41.43;100984.88;5041444;28;20052;-69
2021/01/05 03:29:04;;;;;;;7.25;5.70;;;;;;;18.67;40.92;100988.44;5052144;28;20049;-70
2021/01/05 03:31:46;;;;;;;6.25;5.45;;;;;;;18.63;41.39;100984.16;5051780;28;20036;-69
2021/01/05 03:34:12;;;;;;;7.63;5.32;;;;;;;18.62;41.21;100986.88;5035460;28;20044;-69
2021/01/05 03:36:37;;;;;;;7.88;5.72;;;;;;;18.58;40.96;100988.78;5038694;28;20032;-70
2021/01/05 03:39:05;;;;;;;5.78;5.25;;;;;;;18.64;41.13;100982.38;5035909;28;20029;-69
2021/01/05 03:41:32;;;;;;;6.65;5.97;;;;;;;18.65;41.12;100986.75;5032719;28;20028;-69
2021/01/05 03:43:58;;;;;;;6.28;5.47;;;;;;;18.62;41.74;100986.88;5037805;28;20045;-69
2021/01/05 03:46:26;;;;;;;6.05;5.15;;;;;;;18.63;40.88;100983.28;5021007;28;20758;-69
2021/01/05 03:48:53;;;;;;;8.23;6.88;;;;;;;18.62;41.04;100985.09;5040147;28;20037;-69
2021/01/05 03:51:19;;;;;;;6.95;5.93;;;;;;;18.62;41.06;100987.72;5036316;28;20628;-70
2021/01/05 03:53:44;;;;;;;6.25;5.60;;;;;;;18.61;40.82;100982.50;5036914;28;20044;-71
2021/01/05 03:56:10;;;;;;;8.35;6.28;;;;;;;18.61;40.58;100980.69;5035187;28;20116;-69
2021/01/05 03:58:35;;;;;;;6.68;5.97;;;;;;;18.58;41.01;100979.97;5035680;28;20036;-69
2021/01/05 04:01:03;;;;;;;6.25;5.40;;;;;;;18.62;41.15;100986.88;5035219;28;20443;-71
2021/01/05 04:03:28;;;;;;;5.97;5.38;;;;;;;18.61;41.32;100982.50;5035016;28;20048;-70
2021/01/05 04:05:54;;;;;;;6.70;5.78;;;;;;;18.54;41.45;100973.03;5033706;28;20036;-69
2021/01/05 04:08:20;;;;;;;6.57;5.97;;;;;;;18.55;41.28;100967.69;5037489;28;20040;-70
2021/01/05 04:10:46;;;;;;;6.55;5.85;;;;;;;18.53;41.45;100977.47;5034387;28;20025;-69
2021/01/05 04:13:11;;;;;;;6.00;5.38;;;;;;;18.55;41.15;100975.66;5037421;28;20072;-70
2021/01/05 04:15:37;;;;;;;6.78;5.97;;;;;;;18.55;41.24;100977.41;5018693;28;20527;-70
2021/01/05 04:18:03;;;;;;;5.78;5.28;;;;;;;18.56;41.11;100980.00;5037646;28;20021;-70
2021/01/05 04:20:30;;;;;;;7.10;6.40;;;;;;;18.54;40.99;100978.31;5037194;28;20126;-70
2021/01/05 04:22:58;;;;;;;7.88;6.25;;;;;;;18.51;41.27;100974.88;5034261;28;20616;-71
2021/01/05 04:25:25;;;;;;;6.90;6.20;;;;;;;18.53;41.21;100985.44;5036858;28;20048;-70
2021/01/05 04:27:51;;;;;;;7.85;5.90;;;;;;;18.52;41.31;100983.69;5052764;28;20585;-70
2021/01/05 04:30:38;;;;;;;8.20;6.70;;;;;;;18.55;41.21;100988.00;5018680;28;20041;-71
2021/01/05 04:33:10;;;;;;;7.05;6.05;;;;;;;18.50;41.25;100991.72;5036992;28;20045;-70
2021/01/05 04:35:36;;;;;;;8.40;6.45;;;;;;;18.52;41.12;100994.28;5051329;28;20033;-71
2021/01/05 04:38:03;;;;;;;8.48;7.30;;;;;;;18.43;41.20;100998.13;5037529;28;20043;-71
2021/01/05 04:40:37;;;;;;;6.68;6.03;;;;;;;18.52;41.10;100996.94;5032656;28;20474;-70
2021/01/05 04:43:34;;;;;;;7.18;5.75;;;;;;;18.49;41.17;100991.78;5031514;28;20031;-69
2021/01/05 04:46:15;;;;;;;7.90;6.40;;;;;;;18.45;41.18;100992.81;5035194;28;20060;-70
2021/01/05 04:49:08;;;;;;;7.10;6.40;;;;;;;18.47;40.99;100989.19;5051403;28;20024;-69
2021/01/05 04:51:55;;;;;;;7.32;6.10;;;;;;;18.49;40.78;100994.41;5030828;28;20045;-70
2021/01/05 04:54:31;;;;;;;6.72;5.90;;;;;;;18.45;41.00;100993.66;5018004;28;20037;-70
2021/01/05 04:57:22;;;;;;;6.05;5.43;;;;;;;18.47;40.79;100996.25;5019899;28;20098;-70
2021/01/05 05:00:18;;;;;;;9.00;6.32;;;;;;;18.49;41.00;100986.47;5033621;28;20518;-71
2021/01/05 05:03:04;;;;;;;7.50;6.63;;;;;;;18.50;40.93;100998.81;5037476;28;20692;-70
2021/01/05 05:06:00;;;;;;;8.65;6.93;;;;;;;18.50;41.01;101002.31;5019277;28;20044;-70
2021/01/05 05:09:16;;;;;;;7.07;6.35;;;;;;;18.49;40.81;100994.41;5022379;28;20156;-71
2021/01/05 05:11:56;;;;;;;8.52;6.47;;;;;;;18.49;40.48;100994.41;5019638;28;20052;-70
2021/01/05 05:15:22;;;;;;;7.78;6.90;;;;;;;18.48;40.62;100993.53;5009558;28;20033;-72
2021/01/05 05:18:01;;;;;;;6.72;5.97;;;;;;;18.45;40.99;101001.63;5018006;28;20408;-71
2021/01/05 05:21:00;;;;;;;7.50;6.70;;;;;;;18.49;40.53;101010.31;5034914;28;20441;-70
2021/01/05 05:24:00;;;;;;;8.32;6.70;;;;;;;18.46;40.74;101000.69;5034621;28;20047;-72
2021/01/05 05:27:06;;;;;;;8.52;6.63;;;;;;;18.49;40.45;101002.38;5028117;28;20047;-73
2021/01/05 05:29:54;;;;;;;7.95;6.63;;;;;;;18.49;40.01;101003.22;5040784;28;20057;-72
2021/01/05 05:32:36;;;;;;;8.85;6.53;;;;;;;18.49;40.47;101005.88;5020102;28;20120;-72
2021/01/05 05:35:59;;;;;;;7.30;6.60;;;;;;;18.47;40.83;101007.75;5038111;28;20037;-71
2021/01/05 05:38:59;;;;;;;7.53;6.60;;;;;;;18.41;40.85;101005.31;5043548;28;20037;-71
2021/01/05 05:41:34;;;;;;;6.93;6.22;;;;;;;18.44;40.46;101007.81;5038527;28;20048;-72
2021/01/05 05:44:28;;;;;;;7.68;5.95;;;;;;;18.48;40.06;101003.28;5054891;28;20037;-72
2021/01/05 05:47:19;;;;;;;7.72;6.05;;;;;;;18.51;40.54;101005.81;5037882;28;20079;-71
2021/01/05 05:50:05;;;;;;;8.25;6.30;;;;;;;18.48;39.93;101003.28;5039714;28;20041;-68
2021/01/05 05:52:45;;;;;;;11.50;6.90;;;;;;;18.51;39.96;101003.16;5037733;28;20059;-69
2021/01/05 05:56:04;;;;;;;10.43;6.78;;;;;;;18.54;39.84;101003.06;5038085;28;20097;-71
2021/01/05 05:58:55;;;;;;;12.38;6.50;;;;;;;18.54;40.00;101008.38;5021074;28;20371;-70
2021/01/05 06:01:29;;;;;;;8.82;6.82;;;;;;;18.52;40.10;101003.13;5036426;28;20111;-69
2021/01/05 06:03:58;;;;;;;9.70;7.03;;;;;;;18.55;39.52;101002.16;5041839;28;20041;-70
2021/01/05 06:06:24;;;;;;;8.52;7.03;;;;;;;18.57;39.20;101010.91;5038623;28;20029;-69
2021/01/05 06:08:50;;;;;;;11.18;7.72;;;;;;;18.59;39.06;101011.72;5040313;28;20049;-70
2021/01/05 06:11:16;;;;;;;7.47;6.65;;;;;;;18.60;38.98;101008.13;5039591;28;20033;-71
2021/01/05 06:13:41;;;;;;;8.45;6.82;;;;;;;18.64;38.91;101011.53;5034369;28;20565;-72
2021/01/05 06:16:07;;;;;;;8.55;6.53;;;;;;;18.63;39.03;101008.03;5040233;28;20033;-72
2021/01/05 06:18:33;;;;;;;7.68;6.95;;;;;;;18.62;39.07;101014.25;5022106;28;20048;-70
2021/01/05 06:20:58;;;;;;;12.85;7.70;;;;;;;18.65;38.81;101011.47;5021344;28;20033;-72
2021/01/05 06:23:25;;;;;;;11.52;6.95;;;;;;;18.63;39.09;101010.69;5037264;28;20324;-71
2021/01/05 06:25:51;;;;;;;8.90;6.60;;;;;;;18.67;39.01;101014.94;5038074;28;20036;-70
2021/01/05 06:28:17;;;;;;;6.93;6.22;;;;;;;18.67;38.95;101019.41;5039492;28;20131;-72
2021/01/05 06:30:43;;;;;;;11.23;6.80;;;;;;;18.67;39.15;101017.59;5019249;28;20028;-72
2021/01/05 06:33:08;;;;;;;9.82;6.50;;;;;;;18.70;39.19;101015.78;5041604;28;20935;-71
2021/01/05 06:35:34;;;;;;;11.05;6.63;;;;;;;18.68;39.31;101016.69;5037105;28;21373;-69
2021/01/05 06:38:00;;;;;;;8.43;6.63;;;;;;;18.70;39.44;101021.06;5049500;28;20545;-71
2021/01/05 06:40:28;;;;;;;8.13;6.50;;;;;;;18.70;39.05;101029.03;5038451;28;21305;-70
2021/01/05 06:42:55;;;;;;;7.93;6.43;;;;;;;18.72;39.39;101020.09;5038248;28;20036;-69
2021/01/05 06:45:28;;;;;;;8.63;7.20;;;;;;;18.72;39.64;101024.50;5038989;28;20029;-71
2021/01/05 06:47:54;;;;;;;7.47;6.75;;;;;;;18.72;39.47;101024.50;5036569;28;20037;-72
2021/01/05 06:50:24;;;;;;;9.55;6.43;;;;;;;18.72;39.43;101017.44;5015018;28;20033;-69
2021/01/05 06:52:50;;;;;;;6.63;5.80;;;;;;;18.70;39.46;101029.88;5023493;28;20098;-70
2021/01/05 06:55:17;;;;;;;10.45;5.85;;;;;;;18.74;39.53;101025.34;5018433;28;20029;-70
2021/01/05 06:57:42;;;;;;;15.48;6.82;;;;;;;18.72;39.39;101025.41;5021830;28;21056;-70
2021/01/05 07:00:19;;;;;;;7.97;6.90;;;;;;;18.74;39.55;101027.97;5037481;28;20430;-72
2021/01/05 07:02:45;;;;;;;8.23;6.50;;;;;;;18.75;39.47;101032.38;5020942;28;20116;-70
2021/01/05 07:05:11;;;;;;;11.85;6.65;;;;;;;18.74;39.51;101035.94;5034724;28;20852;-69
2021/01/05 07:07:36;;;;;;;9.25;6.50;;;;;;;18.74;39.45;101042.09;5039377;28;20068;-69
2021/01/05 07:10:05;;;;;;;7.28;5.63;;;;;;;18.74;39.23;101038.59;5035732;28;20044;-71
2021/01/05 07:12:30;;;;;;;7.53;5.93;;;;;;;18.75;39.33;101030.56;5034712;28;20518;-67
2021/01/05 07:14:56;;;;;;;7.13;5.20;;;;;;;18.72;39.27;101038.66;5020878;28;20072;-69
2021/01/05 07:17:22;;;;;;;7.53;6.05;;;;;;;18.70;39.34;101037.84;5036124;28;20246;-72
2021/01/05 07:19:47;;;;;;;7.55;5.47;;;;;;;18.71;39.67;101039.56;5036016;28;20063;-69
2021/01/05 07:22:13;;;;;;;8.43;6.40;;;;;;;18.74;39.31;101033.28;5032265;28;20089;-69
2021/01/05 07:24:38;;;;;;;7.20;5.43;;;;;;;18.75;39.10;101037.69;5020568;28;20807;-70
2021/01/05 07:27:05;;;;;;;7.78;5.28;;;;;;;18.73;38.88;101039.50;5035002;28;20628;-71
2021/01/05 07:29:31;;;;;;;7.20;5.75;;;;;;;18.73;39.39;101040.38;5039704;28;20108;-70
2021/01/05 07:31:57;;;;;;;4.90;4.40;;;;;;;18.73;39.11;101050.97;5020231;28;20033;-71
2021/01/05 07:34:22;;;;;;;6.10;5.50;;;;;;;18.74;39.14;101047.41;5038863;28;20029;-72
2021/01/05 07:36:55;;;;;;;6.65;4.97;;;;;;;18.72;39.12;101054.56;5025885;28;20067;-71
2021/01/05 07:39:32;;;;;;;6.32;5.35;;;;;;;18.74;39.18;101058.00;5040049;28;20028;-71
2021/01/05 07:42:24;;;;;;;7.63;4.65;;;;;;;18.74;39.28;101063.31;5033760;28;20045;-70
2021/01/05 07:44:53;;;;;;;6.85;5.57;;;;;;;18.70;39.12;101064.34;5038498;28;20056;-72
2021/01/05 07:47:22;;;;;;;5.53;4.45;;;;;;;18.74;39.19;101062.47;5028387;28;20935;-71
2021/01/05 07:49:49;;;;;;;6.40;4.82;;;;;;;18.73;38.92;101063.38;5020166;28;20041;-71
2021/01/05 07:52:38;;;;;;;7.97;5.07;;;;;;;18.75;38.89;101064.19;5033733;28;20047;-71
2021/01/05 07:55:14;;;;;;;6.30;4.82;;;;;;;18.72;39.18;101062.53;5002722;28;20041;-70
2021/01/05 07:57:39;;;;;;;6.20;4.78;;;;;;;18.67;39.30;101065.31;5040638;28;20033;-69
2021/01/05 08:00:07;;;;;;;5.88;4.40;;;;;;;18.73;39.03;101066.03;5021511;28;20065;-72
2021/01/05 08:02:32;;;;;;;5.70;4.78;;;;;;;18.70;39.15;101068.81;5037194;28;20033;-68
2021/01/05 08:04:58;;;;;;;6.95;4.93;;;;;;;18.68;39.05;101068.84;5052008;28;20056;-69
2021/01/05 08:07:23;;;;;;;5.85;4.80;;;;;;;18.66;39.58;101071.53;5038768;28;20055;-69
2021/01/05 08:09:49;;;;;;;5.68;4.90;;;;;;;18.72;39.33;101069.59;5021031;28;20075;-67
2021/01/05 08:12:18;;;;;;;7.93;5.18;;;;;;;18.71;39.59;101067.84;5032221;28;20045;-70
2021/01/05 08:14:45;;;;;;;6.22;5.47;;;;;;;18.70;38.96;101063.50;5031731;28;20136;-70
2021/01/05 08:17:12;;;;;;;6.32;5.07;;;;;;;18.68;39.05;101066.19;5033408;28;20049;-70
2021/01/05 08:19:42;;;;;;;5.93;4.95;;;;;;;18.67;39.14;101062.69;5014807;28;20877;-69
2021/01/05 08:22:08;;;;;;;6.57;5.03;;;;;;;18.67;39.21;101067.97;5034164;28;20055;-70
2021/01/05 08:24:34;;;;;;;7.78;5.05;;;;;;;18.65;39.10;101061.00;5027654;28;20840;-69
2021/01/05 08:26:59;;;;;;;5.13;4.63;;;;;;;18.64;38.94;101054.84;5036288;28;20075;-69
2021/01/05 08:29:25;;;;;;;6.90;5.10;;;;;;;18.68;38.83;101063.53;5034119;28;21077;-71
2021/01/05 08:31:50;;;;;;;7.75;5.43;;;;;;;18.67;38.98;101064.47;5033928;28;20710;-69
2021/01/05 08:34:16;;;;;;;6.40;5.22;;;;;;;18.65;38.97;101064.50;5018599;28;20094;-68
2021/01/05 08:36:43;;;;;;;5.35;4.53;;;;;;;18.67;38.65;101062.69;5029721;28;20033;-70
2021/01/05 08:39:11;;;;;;;6.10;5.32;;;;;;;18.65;38.73;101063.66;5033944;28;20040;-71
2021/01/05 08:41:37;;;;;;;5.93;4.80;;;;;;;18.65;38.84;101067.16;5029849;28;20033;-69
2021/01/05 08:44:03;;;;;;;7.78;4.90;;;;;;;18.64;38.85;101072.53;5016739;28;20033;-70
2021/01/05 08:46:29;;;;;;;7.45;5.13;;;;;;;18.63;38.75;101074.31;5034533;28;20094;-69
2021/01/05 08:48:56;;;;;;;5.78;4.45;;;;;;;18.62;38.77;101072.59;5034472;28;20070;-69
2021/01/05 08:51:23;;;;;;;5.88;5.13;;;;;;;18.60;38.70;101069.09;5033205;28;20849;-68
2021/01/05 08:53:50;;;;;;;6.50;5.03;;;;;;;18.64;38.96;101072.53;5031571;28;21401;-70
2021/01/05 08:56:22;;;;;;;6.05;4.75;;;;;;;18.59;38.69;101069.16;5018437;28;21151;-69
2021/01/05 08:58:48;;;;;;;6.75;5.55;;;;;;;18.61;38.85;101070.00;5036287;28;20129;-67
2021/01/05 09:01:13;;;;;;;6.57;5.18;;;;;;;18.63;38.66;101074.31;5021001;28;20032;-70
2021/01/05 09:03:39;;;;;;;7.03;5.20;;;;;;;18.61;38.52;101068.19;5036934;28;20056;-68
2021/01/05 09:06:07;;;;;;;7.68;5.25;;;;;;;18.59;38.62;101063.88;5036461;28;20100;-71
2021/01/05 09:08:33;;;;;;;5.53;4.72;;;;;;;18.58;38.77;101067.47;5040561;28;20381;-69
2021/01/05 09:11:05;;;;;;;6.00;5.22;;;;;;;18.57;38.53;101061.28;5018031;28;20047;-68
2021/01/05 09:13:31;;;;;;;7.68;5.43;;;;;;;18.60;38.45;101066.47;5015998;28;20390;-68
2021/01/05 09:15:57;;;;;;;6.07;4.95;;;;;;;18.59;38.64;101074.47;5038599;28;20573;-70
2021/01/05 09:18:23;;;;;;;5.93;4.78;;;;;;;18.59;38.62;101074.47;5039544;28;20044;-67
2021/01/05 09:20:51;;;;;;;8.30;5.35;;;;;;;18.59;38.58;101071.81;5052208;28;20365;-71
2021/01/05 09:23:24;;;;;;;7.70;5.47;;;;;;;18.57;38.49;101074.53;5004092;28;20438;-68
2021/01/05 09:25:55;;;;;;;6.80;5.07;;;;;;;18.57;38.53;101074.53;5036809;28;20040;-69
2021/01/05 09:28:23;;;;;;;6.30;5.60;;;;;;;18.57;38.56;101077.19;5040151;28;20056;-70
2021/01/05 09:30:49;;;;;;;5.93;5.00;;;;;;;18.59;38.62;101074.47;5017122;28;20036;-69
2021/01/05 09:33:17;;;;;;;8.45;5.25;;;;;;;18.56;38.46;101078.09;5039926;28;20044;-69
2021/01/05 09:35:43;;;;;;;8.00;5.35;;;;;;;18.54;38.65;101079.97;5035078;28;20036;-70
2021/01/05 09:38:10;;;;;;;5.47;4.85;;;;;;;18.54;38.51;101077.31;5040709;28;20069;-68
2021/01/05 09:40:38;;;;;;;6.70;5.05;;;;;;;18.56;39.43;101080.75;5022712;28;20068;-72
2021/01/05 09:43:06;;;;;;;8.80;6.00;;;;;;;18.57;38.91;101077.19;5035860;28;20120;-71
2021/01/05 09:45:37;;;;;;;6.65;4.95;;;;;;;18.55;38.88;101072.84;5038911;28;20047;-72
2021/01/05 09:48:13;;;;;;;8.27;5.65;;;;;;;18.52;38.55;101077.38;5039435;28;20061;-71
2021/01/05 09:50:42;;;;;;;7.85;5.72;;;;;;;18.53;38.42;101072.91;5036309;28;20032;-73
2021/01/05 09:53:09;;;;;;;7.38;5.72;;;;;;;18.52;38.98;101065.88;5039669;28;20056;-72
2021/01/05 09:55:35;;;;;;;7.68;5.43;;;;;;;18.52;40.93;101072.06;5035531;28;20108;-72
2021/01/05 09:58:01;;;;;;;9.43;5.80;;;;;;;18.56;41.17;101072.78;5022898;28;20037;-72
2021/01/05 10:00:27;;;;;;;5.13;4.30;;;;;;;18.58;41.81;101070.97;5056755;28;20495;-71
2021/01/05 10:02:53;;;;;;;11.23;6.18;;;;;;;18.65;43.01;101079.56;5038643;28;20086;-74
2021/01/05 10:05:20;;;;;;;8.82;5.63;;;;;;;18.69;40.40;101073.22;5038865;28;20379;-74
2021/01/05 10:07:46;;;;;;;10.38;6.20;;;;;;;18.65;41.11;101074.25;5038358;28;20083;-72
2021/01/05 10:10:26;;;;;;;10.60;5.60;;;;;;;18.64;40.71;101083.13;5042709;28;20521;-75
2021/01/05 10:12:53;;;;;;;11.30;5.82;;;;;;;18.62;40.86;101077.88;5035781;28;20750;-73
2021/01/05 10:15:24;;;;;;;12.63;6.00;;;;;;;18.72;41.41;101074.91;5024803;28;20033;-71
2021/01/05 10:17:49;;;;;;;7.40;5.35;;;;;;;18.67;40.33;101060.03;5038072;28;20041;-72
2021/01/05 10:20:18;;;;;;;11.15;6.07;;;;;;;18.74;41.58;101076.56;5020330;28;20904;-74
2021/01/05 10:22:44;;;;;;;10.30;5.72;;;;;;;18.78;41.12;101072.88;5036914;28;20533;-77
2021/01/05 10:25:12;;;;;;;10.52;6.22;;;;;;;18.77;42.94;101076.47;5037636;28;20037;-74
2021/01/05 10:27:38;;;;;;;10.15;5.35;;;;;;;18.84;41.54;101077.13;5022239;28;20056;-75
2021/01/05 10:30:08;;;;;;;12.00;5.80;;;;;;;18.82;41.42;101078.94;5036155;28;20033;-74
2021/01/05 10:32:33;;;;;;;9.23;5.28;;;;;;;18.81;41.14;101077.22;5022074;28;20094;-76
2021/01/05 10:34:59;;;;;;;10.45;5.35;;;;;;;18.85;40.65;101060.25;5037365;28;20479;-73
2021/01/05 10:37:24;;;;;;;8.95;5.80;;;;;;;18.88;40.54;101073.44;5039217;28;21620;-75
2021/01/05 10:39:51;;;;;;;7.80;5.57;;;;;;;18.88;40.16;101068.13;5021514;28;20029;-77
2021/01/05 10:42:17;;;;;;;6.30;5.13;;;;;;;18.90;41.00;101066.28;5032101;28;20045;-71
2021/01/05 10:44:43;;;;;;;13.52;5.70;;;;;;;18.83;41.18;101070.06;5036058;28;20029;-71
2021/01/05 10:47:14;;;;;;;15.18;6.65;;;;;;;18.79;41.51;101068.47;5041014;28;20111;-68
2021/01/05 10:49:41;;;;;;;12.52;7.22;;;;;;;18.81;41.58;101064.84;5050791;28;20264;-69
2021/01/05 10:52:15;;;;;;;12.30;6.57;;;;;;;18.78;40.79;101056.97;5036202;28;20029;-72
2021/01/05 10:54:40;;;;;;;8.85;5.70;;;;;;;18.81;40.49;101061.28;5038869;28;20084;-73
2021/01/05 10:57:06;;;;;;;9.57;6.63;;;;;;;18.80;40.68;101054.28;5035446;28;20075;-72
2021/01/05 10:59:33;;;;;;;10.20;7.63;;;;;;;18.79;40.36;101058.72;5035195;28;20053;-70
2021/01/05 11:02:02;;;;;;;14.50;8.48;;;;;;;18.77;40.46;101062.34;5018347;28;20045;-71
2021/01/05 11:04:29;;;;;;;11.90;7.25;;;;;;;18.79;40.79;101065.81;5038974;28;20037;-69
2021/01/05 11:07:11;;;;;;;14.68;7.60;;;;;;;18.81;40.79;101059.53;5020886;28;20029;-71
2021/01/05 11:09:38;;;;;;;16.27;8.45;;;;;;;18.81;40.58;101058.66;5043702;28;20072;-70
2021/01/05 11:12:09;;;;;;;14.18;7.65;;;;;;;18.83;40.65;101056.81;5021138;28;20155;-72
2021/01/05 11:14:38;;;;;;;12.05;7.38;;;;;;;18.84;40.60;101056.75;5035093;28;20052;-70
2021/01/05 11:17:04;;;;;;;19.80;7.70;;;;;;;18.87;40.62;101058.44;5037635;28;20088;-71
2021/01/05 11:19:30;;;;;;;10.57;7.20;;;;;;;18.89;40.49;101053.06;5035178;28;20037;-70
2021/01/05 11:21:59;;;;;;;13.05;7.15;;;;;;;18.87;40.23;101052.28;5031522;28;20126;-72
2021/01/05 11:24:27;;;;;;;12.73;8.15;;;;;;;18.84;40.47;101050.59;5037433;28;20087;-70
2021/01/05 11:26:53;;;;;;;12.50;7.82;;;;;;;18.87;40.47;101050.47;5019783;28;20140;-69
2021/01/05 11:29:22;;;;;;;13.07;7.57;;;;;;;18.85;40.23;101039.03;5024533;28;20033;-69
2021/01/05 11:31:56;;;;;;;11.48;7.05;;;;;;;18.88;40.56;101038.94;5016919;28;20060;-71
2021/01/05 11:34:23;;;;;;;11.88;7.88;;;;;;;18.87;40.51;101039.84;5051340;28;20032;-70
2021/01/05 11:36:49;;;;;;;12.45;7.07;;;;;;;18.87;40.09;101036.34;5037808;28;20124;-71
2021/01/05 11:39:14;;;;;;;9.98;6.72;;;;;;;18.89;40.57;101040.72;5026356;28;20114;-69
2021/01/05 11:41:43;;;;;;;11.02;6.45;;;;;;;18.89;40.67;101034.50;5040068;28;20039;-72
2021/01/05 11:44:09;;;;;;;8.35;6.10;;;;;;;18.86;41.30;101038.13;5019248;28;20568;-69
2021/01/05 11:46:35;;;;;;;11.98;6.80;;;;;;;18.90;40.17;101031.81;5033706;28;20134;-74
2021/01/05 11:49:00;;;;;;;10.30;6.63;;;;;;;18.94;40.77;101032.56;5035298;28;20053;-72